createdAt,value
2022-10-25T00:04:53.142Z,13.35
2022-10-25T00:10:20.073Z,9.57
2022-10-25T00:15:52.135Z,8.77
2022-10-25T00:21:18.956Z,12.10
2022-10-25T00:26:43.782Z,10.25
2022-10-25T00:32:09.818Z,6.15
2022-10-25T00:37:34.711Z,4.32
2022-10-25T00:43:00.010Z,5.03
2022-10-25T00:48:26.026Z,3.72
2022-10-25T00:53:52.032Z,4.35
2022-10-25T00:59:21.863Z,4.38
2022-10-25T01:04:48.128Z,4.35
2022-10-25T01:10:12.592Z,4.00
2022-10-25T01:15:55.422Z,3.80
2022-10-25T01:21:54.693Z,3.53
2022-10-25T01:27:38.069Z,4.95
2022-10-25T01:33:16.048Z,5.25
2022-10-25T01:38:47.452Z,4.83
2022-10-25T01:44:26.289Z,4.75
2022-10-25T01:49:59.184Z,4.28
2022-10-25T01:55:28.933Z,5.22
2022-10-25T02:01:15.920Z,5.47
2022-10-25T02:06:53.293Z,5.47
2022-10-25T02:12:25.978Z,5.97
2022-10-25T02:17:57.269Z,5.65
2022-10-25T02:23:27.598Z,5.40
2022-10-25T02:28:56.053Z,5.30
2022-10-25T02:34:22.584Z,5.30
2022-10-25T02:39:49.972Z,6.00
2022-10-25T02:45:14.814Z,7.25
2022-10-25T02:50:39.643Z,7.20
2022-10-25T02:56:08.764Z,8.30
2022-10-25T03:01:33.696Z,11.23
2022-10-25T03:06:58.260Z,11.18
2022-10-25T03:12:25.387Z,9.75
2022-10-25T03:17:50.280Z,10.00
2022-10-25T03:23:14.673Z,10.50
2022-10-25T03:28:41.222Z,10.02
2022-10-25T03:34:04.718Z,10.85
2022-10-25T03:39:30.555Z,10.48
2022-10-25T03:44:56.574Z,10.25
2022-10-25T03:50:21.157Z,10.88
2022-10-25T03:55:45.087Z,10.18
2022-10-25T04:01:11.577Z,11.52
2022-10-25T04:06:36.380Z,9.85
2022-10-25T04:12:00.616Z,10.40
2022-10-25T04:17:27.171Z,11.50
2022-10-25T04:22:56.480Z,10.30
2022-10-25T04:28:22.896Z,12.15
2022-10-25T04:33:51.317Z,11.07
2022-10-25T04:39:16.123Z,11.52
2022-10-25T04:44:40.731Z,12.52
2022-10-25T04:50:07.953Z,12.32
2022-10-25T04:55:33.211Z,11.88
2022-10-25T05:01:01.485Z,11.73
2022-10-25T05:06:28.149Z,12.63
2022-10-25T05:11:53.002Z,12.55
2022-10-25T05:17:17.667Z,11.15
2022-10-25T05:22:43.301Z,12.30
2022-10-25T05:28:07.606Z,10.35
2022-10-25T05:33:32.390Z,11.05
2022-10-25T05:39:02.900Z,11.80
2022-10-25T05:44:27.232Z,11.38
2022-10-25T05:49:51.706Z,11.45
2022-10-25T05:55:17.810Z,11.70
2022-10-25T06:00:43.760Z,11.07
2022-10-25T06:06:10.359Z,9.95
2022-10-25T06:11:36.733Z,11.23
2022-10-25T06:17:02.961Z,9.80
2022-10-25T06:22:27.694Z,9.43
2022-10-25T06:27:54.863Z,8.93
2022-10-25T06:33:19.141Z,7.75
2022-10-25T06:38:43.815Z,8.23
2022-10-25T06:44:09.702Z,8.88
2022-10-25T06:49:34.889Z,8.50
2022-10-25T06:54:58.589Z,8.45
2022-10-25T07:00:24.740Z,8.77
2022-10-25T07:05:49.407Z,7.43
2022-10-25T07:11:20.680Z,8.52
2022-10-25T07:16:46.607Z,8.00
2022-10-25T07:22:15.473Z,7.93
2022-10-25T07:27:39.101Z,8.32
2022-10-25T07:33:05.147Z,8.27
2022-10-25T07:38:34.188Z,7.80
2022-10-25T07:44:03.586Z,8.85
2022-10-25T07:49:33.524Z,8.93
2022-10-25T07:54:58.034Z,8.82
2022-10-25T08:00:27.321Z,8.32
2022-10-25T08:05:52.904Z,8.57
2022-10-25T08:11:18.046Z,7.68
2022-10-25T08:16:47.505Z,6.82
2022-10-25T08:27:46.757Z,6.65
2022-10-25T08:33:15.465Z,6.22
2022-10-25T08:38:45.751Z,6.15
2022-10-25T08:44:25.952Z,6.43
2022-10-25T08:49:59.668Z,6.18
2022-10-25T08:55:33.984Z,5.90
2022-10-25T09:01:08.288Z,7.47
2022-10-25T09:06:44.817Z,5.32
2022-10-25T09:12:24.655Z,6.10
2022-10-25T09:17:55.438Z,6.20
2022-10-25T09:23:30.102Z,5.30
2022-10-25T09:29:05.463Z,5.90
2022-10-25T09:34:34.592Z,5.15
2022-10-25T09:40:07.119Z,5.47
2022-10-25T09:45:46.714Z,5.30
2022-10-25T09:51:20.448Z,5.25
2022-10-25T09:56:49.297Z,5.00
2022-10-25T10:07:54.740Z,5.40
2022-10-25T10:13:37.001Z,5.93
2022-10-25T10:19:18.369Z,7.18
2022-10-25T10:24:59.777Z,7.55
2022-10-25T10:30:30.693Z,8.40
2022-10-25T10:36:22.317Z,6.28
2022-10-25T10:42:03.377Z,6.85
2022-10-25T10:47:35.738Z,5.53
2022-10-25T10:53:09.025Z,5.78
2022-10-25T10:58:40.958Z,4.63
2022-10-25T11:04:10.278Z,5.03
2022-10-25T11:09:40.975Z,4.68
2022-10-25T11:15:12.148Z,4.07
2022-10-25T11:20:50.399Z,3.47
2022-10-25T11:26:30.636Z,3.83
2022-10-25T11:32:07.962Z,3.05
2022-10-25T11:37:43.428Z,2.95
2022-10-25T11:43:32.400Z,3.35
2022-10-25T11:49:15.947Z,3.33
2022-10-25T11:54:50.938Z,2.80
2022-10-25T12:00:24.003Z,2.63
2022-10-25T12:05:59.394Z,2.92
2022-10-25T12:11:31.370Z,2.72
2022-10-25T12:17:04.091Z,3.50
2022-10-25T12:22:39.891Z,3.42
2022-10-25T12:28:26.765Z,3.08
2022-10-25T12:34:03.235Z,3.70
2022-10-25T12:39:40.699Z,3.58
2022-10-25T12:45:50.527Z,3.53
2022-10-25T12:51:38.786Z,3.13
2022-10-25T12:57:17.755Z,3.63
2022-10-25T13:03:19.999Z,3.53
2022-10-25T13:09:09.263Z,3.60
2022-10-25T13:14:45.971Z,3.63
2022-10-25T13:20:46.260Z,2.92
2022-10-25T13:26:17.252Z,3.50
2022-10-25T13:31:59.225Z,3.30
2022-10-25T13:37:41.163Z,4.03
2022-10-25T13:43:20.851Z,3.83
2022-10-25T13:48:50.802Z,4.78
2022-10-25T13:54:19.892Z,3.78
2022-10-25T14:00:01.575Z,4.57
2022-10-25T14:05:58.546Z,3.67
2022-10-25T14:11:34.656Z,4.00
2022-10-25T14:17:16.260Z,4.40
2022-10-25T14:22:43.253Z,4.45
2022-10-25T14:28:16.475Z,4.13
2022-10-25T14:33:46.043Z,4.93
2022-10-25T14:39:18.510Z,4.68
2022-10-25T14:44:47.820Z,4.63
2022-10-25T14:55:37.427Z,4.88
2022-10-25T15:01:04.864Z,4.75
2022-10-25T15:06:32.273Z,4.35
2022-10-25T15:12:15.580Z,4.97
2022-10-25T15:17:51.557Z,4.82
2022-10-25T15:23:22.626Z,4.22
2022-10-25T15:28:48.974Z,4.32
2022-10-25T15:34:14.548Z,4.80
2022-10-25T15:39:40.001Z,4.47
2022-10-25T15:45:08.904Z,4.40
2022-10-25T15:50:47.635Z,4.53
2022-10-25T15:56:14.637Z,4.38
2022-10-25T16:01:42.108Z,4.75
2022-10-25T16:07:11.461Z,4.85
2022-10-25T16:12:38.977Z,4.75
2022-10-25T16:18:03.861Z,4.95
2022-10-25T16:23:32.505Z,5.43
2022-10-25T16:29:01.401Z,5.18
2022-10-25T16:34:27.367Z,5.00
2022-10-25T16:39:52.872Z,4.38
2022-10-25T16:45:23.360Z,4.88
2022-10-25T16:50:48.699Z,4.82
2022-10-25T16:56:18.601Z,5.97
2022-10-25T17:01:44.825Z,5.53
2022-10-25T17:07:12.710Z,5.95
2022-10-25T17:12:46.070Z,4.90
2022-10-25T17:18:12.756Z,5.18
2022-10-25T17:23:41.745Z,5.30
2022-10-25T17:29:06.838Z,5.60
2022-10-25T17:34:37.533Z,5.57
2022-10-25T17:40:04.287Z,5.63
2022-10-25T17:45:31.603Z,4.82
2022-10-25T17:51:00.900Z,4.47
2022-10-25T18:01:53.492Z,5.25
2022-10-25T18:07:18.991Z,4.63
2022-10-25T18:12:43.074Z,4.57
2022-10-25T18:18:12.816Z,5.07
2022-10-25T18:23:37.667Z,4.00
2022-10-25T18:29:03.799Z,4.40
2022-10-25T18:34:29.739Z,4.20
2022-10-25T18:39:55.741Z,4.47
2022-10-25T18:51:03.596Z,4.15
2022-10-25T18:56:29.189Z,4.10
2022-10-25T19:01:53.248Z,4.00
2022-10-25T19:07:21.630Z,4.10
2022-10-25T19:12:48.252Z,3.58
2022-10-25T19:18:14.073Z,3.80
2022-10-25T19:23:44.604Z,4.45
2022-10-25T19:29:09.103Z,4.47
2022-10-25T19:34:36.576Z,3.97
2022-10-25T19:40:02.813Z,4.53
2022-10-25T19:45:26.866Z,4.65
2022-10-25T19:50:51.997Z,4.03
2022-10-25T19:56:19.687Z,4.18
2022-10-25T20:01:45.991Z,4.13
2022-10-25T20:07:10.397Z,4.22
2022-10-25T20:12:36.661Z,3.83
2022-10-25T20:18:01.438Z,3.95
2022-10-25T20:23:28.503Z,4.50
2022-10-25T20:28:55.580Z,4.03
2022-10-25T20:34:20.886Z,4.18
2022-10-25T20:39:45.888Z,4.65
2022-10-25T20:45:13.529Z,4.90
2022-10-25T20:50:38.519Z,5.43
2022-10-25T20:56:03.129Z,4.93
2022-10-25T21:01:29.005Z,5.60
2022-10-25T21:06:54.039Z,5.05
2022-10-25T21:12:19.381Z,5.20
2022-10-25T21:17:49.943Z,4.88
2022-10-25T21:23:14.153Z,5.07
2022-10-25T21:28:39.469Z,5.40
2022-10-25T21:34:06.354Z,6.22
2022-10-25T21:45:20.588Z,6.47
2022-10-25T21:50:46.133Z,5.90
2022-10-25T21:56:12.437Z,6.53
2022-10-25T22:01:37.166Z,6.65
2022-10-25T22:07:04.374Z,6.43
2022-10-25T22:12:28.228Z,5.82
2022-10-25T22:17:55.344Z,5.78
2022-10-25T22:23:21.326Z,4.90
2022-10-25T22:28:45.555Z,4.45
2022-10-25T22:34:11.236Z,4.90
2022-10-25T22:39:36.454Z,4.50
2022-10-25T22:45:02.053Z,5.18
2022-10-25T22:50:26.156Z,5.80
2022-10-25T22:56:00.480Z,6.30
2022-10-25T23:01:26.288Z,7.50
2022-10-25T23:06:51.668Z,8.65
2022-10-25T23:12:17.106Z,9.05
2022-10-25T23:17:41.220Z,10.60
2022-10-25T23:23:06.493Z,10.85
2022-10-25T23:28:33.426Z,9.07
2022-10-25T23:34:00.222Z,8.48
2022-10-25T23:39:26.515Z,7.43
2022-10-25T23:44:52.622Z,7.65
2022-10-25T23:50:17.794Z,8.25
2022-10-25T23:55:45.075Z,6.97
